sensor_id;sensor_type;location;lat;lon;timestamp;pressure;altitude;pressure_sealevel;temperature;humidity
71194;BME280;58903;47.210;8.618;2024-03-22T00:00:25;94883.25;;;23.23;49.04
71194;BME280;58903;47.210;8.618;2024-03-22T00:03:02;94887.25;;;23.22;49.22
71194;BME280;58903;47.210;8.618;2024-03-22T00:05:42;94878.94;;;23.17;48.83
71194;BME280;58903;47.210;8.618;2024-03-22T00:08:08;94892.47;;;23.20;48.80
71194;BME280;58903;47.210;8.618;2024-03-22T00:10:35;94884.97;;;23.21;48.53
71194;BME280;58903;47.210;8.618;2024-03-22T00:13:34;94883.47;;;23.20;49.04
71194;BME280;58903;47.210;8.618;2024-03-22T00:16:09;94888.97;;;23.20;48.75
71194;BME280;58903;47.210;8.618;2024-03-22T00:18:59;94891.22;;;23.21;49.24
71194;BME280;58903;47.210;8.618;2024-03-22T00:21:46;94887.44;;;23.19;48.90
71194;BME280;58903;47.210;8.618;2024-03-22T00:24:21;94891.19;;;23.16;49.01
71194;BME280;58903;47.210;8.618;2024-03-22T00:27:04;94864.66;;;23.07;48.78
71194;BME280;58903;47.210;8.618;2024-03-22T00:29:32;94876.69;;;23.15;48.80
71194;BME280;58903;47.210;8.618;2024-03-22T00:32:02;94869.91;;;23.11;49.13
71194;BME280;58903;47.210;8.618;2024-03-22T00:34:28;94881.91;;;23.13;48.95
71194;BME280;58903;47.210;8.618;2024-03-22T00:37:25;94876.44;;;23.13;48.79
71194;BME280;58903;47.210;8.618;2024-03-22T00:40:09;94875.19;;;23.14;49.12
71194;BME280;58903;47.210;8.618;2024-03-22T00:42:44;94864.91;;;23.09;48.92
71194;BME280;58903;47.210;8.618;2024-03-22T00:45:26;94862.44;;;23.11;48.76
71194;BME280;58903;47.210;8.618;2024-03-22T00:47:52;94866.22;;;23.14;48.79
71194;BME280;58903;47.210;8.618;2024-03-22T00:50:35;94866.22;;;23.14;48.82
71194;BME280;58903;47.210;8.618;2024-03-22T00:53:21;94868.19;;;23.13;49.04
71194;BME280;58903;47.210;8.618;2024-03-22T00:56:06;94862.72;;;23.13;49.21
71194;BME280;58903;47.210;8.618;2024-03-22T00:58:48;94856.69;;;23.09;48.85
71194;BME280;58903;47.210;8.618;2024-03-22T01:01:23;94860.44;;;23.12;48.49
71194;BME280;58903;47.210;8.618;2024-03-22T01:03:58;94854.22;;;23.11;48.92
71194;BME280;58903;47.210;8.618;2024-03-22T01:06:24;94856.19;;;23.11;49.10
71194;BME280;58903;47.210;8.618;2024-03-22T01:08:51;94853.19;;;23.09;49.06
71194;BME280;58903;47.210;8.618;2024-03-22T01:11:19;94855.16;;;23.08;48.64
71194;BME280;58903;47.210;8.618;2024-03-22T01:13:45;94846.66;;;23.06;48.54
71194;BME280;58903;47.210;8.618;2024-03-22T01:16:11;94846.19;;;23.08;48.82
71194;BME280;58903;47.210;8.618;2024-03-22T01:18:39;94840.41;;;23.06;48.89
71194;BME280;58903;47.210;8.618;2024-03-22T01:21:11;94845.44;;;23.07;49.03
71194;BME280;58903;47.210;8.618;2024-03-22T01:23:41;94851.66;;;23.08;48.73
71194;BME280;58903;47.210;8.618;2024-03-22T01:26:08;94850.63;;;23.05;49.09
71194;BME280;58903;47.210;8.618;2024-03-22T01:28:36;94850.63;;;23.05;48.99
71194;BME280;58903;47.210;8.618;2024-03-22T01:31:03;94842.63;;;23.02;49.23
71194;BME280;58903;47.210;8.618;2024-03-22T01:33:35;94842.91;;;23.04;48.79
71194;BME280;58903;47.210;8.618;2024-03-22T01:36:03;94836.66;;;23.03;48.70
71194;BME280;58903;47.210;8.618;2024-03-22T01:38:37;94837.63;;;23.00;49.00
71194;BME280;58903;47.210;8.618;2024-03-22T01:41:12;94846.13;;;23.02;48.86
71194;BME280;58903;47.210;8.618;2024-03-22T01:43:38;94828.63;;;23.00;48.72
71194;BME280;58903;47.210;8.618;2024-03-22T01:46:07;94836.09;;;22.99;48.79
71194;BME280;58903;47.210;8.618;2024-03-22T01:48:34;94824.59;;;22.95;48.75
71194;BME280;58903;47.210;8.618;2024-03-22T01:51:02;94825.34;;;22.96;49.22
71194;BME280;58903;47.210;8.618;2024-03-22T01:53:28;94821.38;;;22.97;48.66
71194;BME280;58903;47.210;8.618;2024-03-22T01:55:54;94819.13;;;22.95;48.95
71194;BME280;58903;47.210;8.618;2024-03-22T01:58:31;94811.56;;;22.90;48.85
71194;BME280;58903;47.210;8.618;2024-03-22T02:00:57;94815.84;;;22.91;48.81
71194;BME280;58903;47.210;8.618;2024-03-22T02:03:23;94815.34;;;22.93;48.98
71194;BME280;58903;47.210;8.618;2024-03-22T02:05:49;94811.38;;;22.94;49.37
71194;BME280;58903;47.210;8.618;2024-03-22T02:08:17;94814.59;;;22.92;49.11
71194;BME280;58903;47.210;8.618;2024-03-22T02:10:46;94808.38;;;22.92;48.99
71194;BME280;58903;47.210;8.618;2024-03-22T02:13:12;94807.38;;;22.95;49.10
71194;BME280;58903;47.210;8.618;2024-03-22T02:15:43;94793.63;;;22.89;48.63
71194;BME280;58903;47.210;8.618;2024-03-22T02:18:09;94799.66;;;22.93;48.98
71194;BME280;58903;47.210;8.618;2024-03-22T02:20:37;94803.59;;;22.92;48.77
71194;BME280;58903;47.210;8.618;2024-03-22T02:23:03;94798.13;;;22.92;49.48
71194;BME280;58903;47.210;8.618;2024-03-22T02:25:29;94803.59;;;22.92;48.87
71194;BME280;58903;47.210;8.618;2024-03-22T02:27:56;94795.59;;;22.89;48.72
71194;BME280;58903;47.210;8.618;2024-03-22T02:30:22;94795.38;;;22.92;49.19
71194;BME280;58903;47.210;8.618;2024-03-22T02:32:48;94791.16;;;22.91;49.35
71194;BME280;58903;47.210;8.618;2024-03-22T02:35:16;94798.13;;;22.92;48.74
71194;BME280;58903;47.210;8.618;2024-03-22T02:37:42;94794.38;;;22.90;48.88
71194;BME280;58903;47.210;8.618;2024-03-22T02:40:13;94788.81;;;22.84;48.97
71194;BME280;58903;47.210;8.618;2024-03-22T02:43:10;94787.88;;;22.87;49.21
71194;BME280;58903;47.210;8.618;2024-03-22T02:45:49;94791.84;;;22.86;49.18
71194;BME280;58903;47.210;8.618;2024-03-22T02:48:34;94783.06;;;22.82;49.13
71194;BME280;58903;47.210;8.618;2024-03-22T02:51:01;94779.31;;;22.80;48.67
71194;BME280;58903;47.210;8.618;2024-03-22T02:53:43;94784.38;;;22.87;48.93
71194;BME280;58903;47.210;8.618;2024-03-22T02:56:21;94775.38;;;22.86;48.76
71194;BME280;58903;47.210;8.618;2024-03-22T02:58:49;94771.16;;;22.85;48.79
71194;BME280;58903;47.210;8.618;2024-03-22T03:01:24;94765.13;;;22.81;48.88
71194;BME280;58903;47.210;8.618;2024-03-22T03:03:51;94754.16;;;22.81;48.75
71194;BME280;58903;47.210;8.618;2024-03-22T03:06:17;94766.88;;;22.84;48.66
71194;BME280;58903;47.210;8.618;2024-03-22T03:08:45;94769.91;;;22.86;48.62
71194;BME280;58903;47.210;8.618;2024-03-22T03:11:13;94770.38;;;22.85;48.65
71194;BME280;58903;47.210;8.618;2024-03-22T03:13:39;94760.63;;;22.84;49.32
71194;BME280;58903;47.210;8.618;2024-03-22T03:16:05;94753.16;;;22.84;49.51
71194;BME280;58903;47.210;8.618;2024-03-22T03:18:34;94753.94;;;22.85;48.83
71194;BME280;58903;47.210;8.618;2024-03-22T03:21:00;94749.19;;;22.85;48.75
71194;BME280;58903;47.210;8.618;2024-03-22T03:23:27;94754.69;;;22.85;48.48
71194;BME280;58903;47.210;8.618;2024-03-22T03:25:53;94736.94;;;22.81;48.70
71194;BME280;58903;47.210;8.618;2024-03-22T03:28:19;94737.47;;;22.85;48.93
71194;BME280;58903;47.210;8.618;2024-03-22T03:30:45;94738.94;;;22.80;48.57
71194;BME280;58903;47.210;8.618;2024-03-22T03:33:15;94743.72;;;22.85;48.96
71194;BME280;58903;47.210;8.618;2024-03-22T03:35:45;94742.19;;;22.84;48.87
71194;BME280;58903;47.210;8.618;2024-03-22T03:38:17;94740.44;;;22.81;48.70
71194;BME280;58903;47.210;8.618;2024-03-22T03:40:45;94746.41;;;22.80;48.97
71194;BME280;58903;47.210;8.618;2024-03-22T03:43:12;94744.94;;;22.84;48.83
71194;BME280;58903;47.210;8.618;2024-03-22T03:45:38;94744.19;;;22.84;48.79
71194;BME280;58903;47.210;8.618;2024-03-22T03:48:07;94734.19;;;22.81;48.88
71194;BME280;58903;47.210;8.618;2024-03-22T03:50:33;94732.22;;;22.81;48.89
71194;BME280;58903;47.210;8.618;2024-03-22T03:52:59;94730.22;;;22.82;48.88
71194;BME280;58903;47.210;8.618;2024-03-22T03:55:28;94739.72;;;22.86;49.10
71194;BME280;58903;47.210;8.618;2024-03-22T03:57:58;94724.97;;;22.84;48.85
71194;BME280;58903;47.210;8.618;2024-03-22T04:03:48;94729.50;;;22.87;48.94
71194;BME280;58903;47.210;8.618;2024-03-22T04:06:14;94723.28;;;22.86;48.93
71194;BME280;58903;47.210;8.618;2024-03-22T04:08:40;94715.75;;;22.81;48.98
71194;BME280;58903;47.210;8.618;2024-03-22T04:11:08;94720.25;;;22.84;48.59
71194;BME280;58903;47.210;8.618;2024-03-22T04:13:36;94714.78;;;22.84;48.95
71194;BME280;58903;47.210;8.618;2024-03-22T04:16:03;94712.78;;;22.85;48.68
71194;BME280;58903;47.210;8.618;2024-03-22T04:18:43;94707.81;;;22.83;48.80
71194;BME280;58903;47.210;8.618;2024-03-22T04:21:28;94708.06;;;22.85;48.54
71194;BME280;58903;47.210;8.618;2024-03-22T04:24:08;94702.59;;;22.85;48.43
71194;BME280;58903;47.210;8.618;2024-03-22T04:27:05;94707.31;;;22.85;48.41
71194;BME280;58903;47.210;8.618;2024-03-22T04:29:34;94705.06;;;22.83;48.53
71194;BME280;58903;47.210;8.618;2024-03-22T04:32:08;94698.81;;;22.83;48.76
71194;BME280;58903;47.210;8.618;2024-03-22T04:34:36;94704.78;;;22.81;48.73
71194;BME280;58903;47.210;8.618;2024-03-22T04:37:37;94707.53;;;22.81;48.98
71194;BME280;58903;47.210;8.618;2024-03-22T04:40:08;94709.03;;;22.82;48.97
71194;BME280;58903;47.210;8.618;2024-03-22T04:46:33;94712.75;;;22.79;48.83
71194;BME280;58903;47.210;8.618;2024-03-22T04:48:59;94715.50;;;22.79;48.79
71194;BME280;58903;47.210;8.618;2024-03-22T04:51:49;94710.28;;;22.81;48.50
71194;BME280;58903;47.210;8.618;2024-03-22T04:54:25;94710.00;;;22.79;48.40
71194;BME280;58903;47.210;8.618;2024-03-22T04:56:51;94710.97;;;22.76;48.77
71194;BME280;58903;47.210;8.618;2024-03-22T04:59:20;94707.28;;;22.79;48.81
71194;BME280;58903;47.210;8.618;2024-03-22T05:01:47;94705.75;;;22.78;48.51
71194;BME280;58903;47.210;8.618;2024-03-22T05:04:14;94705.00;;;22.78;48.82
71194;BME280;58903;47.210;8.618;2024-03-22T05:06:40;94704.22;;;22.77;48.84
71194;BME280;58903;47.210;8.618;2024-03-22T05:09:06;94703.78;;;22.79;48.43
71194;BME280;58903;47.210;8.618;2024-03-22T05:11:56;94698.28;;;22.79;48.42
71194;BME280;58903;47.210;8.618;2024-03-22T05:14:37;94690.53;;;22.77;48.21
71194;BME280;58903;47.210;8.618;2024-03-22T05:17:05;94695.53;;;22.79;48.88
71194;BME280;58903;47.210;8.618;2024-03-22T05:19:33;94694.28;;;22.80;48.61
71194;BME280;58903;47.210;8.618;2024-03-22T05:21:59;94690.06;;;22.79;48.66
71194;BME280;58903;47.210;8.618;2024-03-22T05:24:26;94686.81;;;22.80;48.81
71194;BME280;58903;47.210;8.618;2024-03-22T05:27:03;94693.25;;;22.77;48.38
71194;BME280;58903;47.210;8.618;2024-03-22T05:29:29;94691.28;;;22.78;49.00
71194;BME280;58903;47.210;8.618;2024-03-22T05:31:55;94686.81;;;22.80;48.66
71194;BME280;58903;47.210;8.618;2024-03-22T05:34:23;94686.13;;;22.85;48.41
71194;BME280;58903;47.210;8.618;2024-03-22T05:36:49;94686.41;;;22.87;48.87
71194;BME280;58903;47.210;8.618;2024-03-22T05:39:30;94683.91;;;22.89;48.64
71194;BME280;58903;47.210;8.618;2024-03-22T05:42:00;94680.16;;;22.87;48.51
71194;BME280;58903;47.210;8.618;2024-03-22T05:44:33;94681.69;;;22.93;48.88
71194;BME280;58903;47.210;8.618;2024-03-22T05:47:07;94671.22;;;22.92;49.15
71194;BME280;58903;47.210;8.618;2024-03-22T05:49:38;94678.25;;;22.98;48.78
71194;BME280;58903;47.210;8.618;2024-03-22T05:52:23;94678.25;;;22.98;49.14
71194;BME280;58903;47.210;8.618;2024-03-22T05:55:08;94684.28;;;23.02;48.95
71194;BME280;58903;47.210;8.618;2024-03-22T05:57:35;94677.53;;;23.03;48.82
71194;BME280;58903;47.210;8.618;2024-03-22T06:00:05;94677.53;;;23.03;49.27
71194;BME280;58903;47.210;8.618;2024-03-22T06:02:32;94674.06;;;23.03;49.28
71194;BME280;58903;47.210;8.618;2024-03-22T06:05:03;94660.03;;;22.95;49.12
71194;BME280;58903;47.210;8.618;2024-03-22T06:07:29;94663.09;;;23.03;49.23
71194;BME280;58903;47.210;8.618;2024-03-22T06:09:56;94667.84;;;23.08;49.36
71194;BME280;58903;47.210;8.618;2024-03-22T06:12:39;94666.88;;;23.11;49.03
71194;BME280;58903;47.210;8.618;2024-03-22T06:15:25;94664.41;;;23.13;49.64
71194;BME280;58903;47.210;8.618;2024-03-22T06:17:51;94663.19;;;23.14;49.79
71194;BME280;58903;47.210;8.618;2024-03-22T06:20:19;94668.66;;;23.14;49.83
71194;BME280;58903;47.210;8.618;2024-03-22T06:23:03;94671.41;;;23.14;49.91
71194;BME280;58903;47.210;8.618;2024-03-22T06:28:58;94666.44;;;23.18;48.22
71194;BME280;58903;47.210;8.618;2024-03-22T06:34:44;94667.81;;;23.02;48.54
71194;BME280;58903;47.210;8.618;2024-03-22T06:40:43;94661.63;;;23.07;48.76
71194;BME280;58903;47.210;8.618;2024-03-22T06:43:16;94662.34;;;23.08;48.87
71194;BME280;58903;47.210;8.618;2024-03-22T06:45:56;94657.63;;;23.08;49.02
71194;BME280;58903;47.210;8.618;2024-03-22T06:48:22;94661.91;;;23.09;48.60
71194;BME280;58903;47.210;8.618;2024-03-22T06:50:55;94655.66;;;23.09;48.35
71194;BME280;58903;47.210;8.618;2024-03-22T06:53:22;94663.13;;;23.08;48.84
71194;BME280;58903;47.210;8.618;2024-03-22T06:56:09;94667.13;;;23.07;49.42
71194;BME280;58903;47.210;8.618;2024-03-22T06:58:44;94661.13;;;23.09;48.86
71194;BME280;58903;47.210;8.618;2024-03-22T07:01:16;94644.63;;;23.03;48.35
71194;BME280;58903;47.210;8.618;2024-03-22T07:03:46;94658.59;;;23.05;48.70
71194;BME280;58903;47.210;8.618;2024-03-22T07:06:26;94664.63;;;23.09;48.96
71194;BME280;58903;47.210;8.618;2024-03-22T07:08:51;94659.16;;;23.09;48.86
71194;BME280;58903;47.210;8.618;2024-03-22T07:11:17;94654.38;;;23.10;48.64
71194;BME280;58903;47.210;8.618;2024-03-22T07:14:09;94659.16;;;23.09;48.77
71194;BME280;58903;47.210;8.618;2024-03-22T07:16:50;94657.91;;;23.10;48.72
71194;BME280;58903;47.210;8.618;2024-03-22T07:19:22;94660.63;;;23.10;48.39
71194;BME280;58903;47.210;8.618;2024-03-22T07:21:55;94655.66;;;23.09;48.88
71194;BME280;58903;47.210;8.618;2024-03-22T07:24:32;94658.91;;;23.13;48.86
71194;BME280;58903;47.210;8.618;2024-03-22T07:26:57;94669.13;;;23.12;49.31
71194;BME280;58903;47.210;8.618;2024-03-22T07:29:52;94659.94;;;23.15;48.67
71194;BME280;58903;47.210;8.618;2024-03-22T07:32:19;94653.69;;;23.15;48.70
71194;BME280;58903;47.210;8.618;2024-03-22T07:35:07;94657.19;;;23.15;48.81
71194;BME280;58903;47.210;8.618;2024-03-22T07:37:43;94657.94;;;23.16;48.91
71194;BME280;58903;47.210;8.618;2024-03-22T07:40:21;94660.19;;;23.17;49.01
71194;BME280;58903;47.210;8.618;2024-03-22T07:42:59;94662.69;;;23.15;49.31
71194;BME280;58903;47.210;8.618;2024-03-22T07:45:27;94660.94;;;23.18;48.87
71194;BME280;58903;47.210;8.618;2024-03-22T07:48:03;94656.94;;;23.19;49.25
71194;BME280;58903;47.210;8.618;2024-03-22T07:50:29;94660.19;;;23.17;48.51
71194;BME280;58903;47.210;8.618;2024-03-22T07:53:09;94655.94;;;23.16;49.14
71194;BME280;58903;47.210;8.618;2024-03-22T07:55:36;94661.69;;;23.18;49.19
71194;BME280;58903;47.210;8.618;2024-03-22T07:58:02;94666.69;;;23.20;49.44
71194;BME280;58903;47.210;8.618;2024-03-22T08:00:47;94658.22;;;23.23;48.94
71194;BME280;58903;47.210;8.618;2024-03-22T08:03:18;94666.72;;;23.25;49.06
71194;BME280;58903;47.210;8.618;2024-03-22T08:06:24;94654.78;;;23.29;49.28
71194;BME280;58903;47.210;8.618;2024-03-22T08:08:50;94663.78;;;23.29;49.34
71194;BME280;58903;47.210;8.618;2024-03-22T08:11:16;94654.56;;;23.32;49.13
71194;BME280;58903;47.210;8.618;2024-03-22T08:13:42;94644.56;;;23.29;48.85
71194;BME280;58903;47.210;8.618;2024-03-22T08:16:07;94664.84;;;23.37;49.04
71194;BME280;58903;47.210;8.618;2024-03-22T08:18:38;94657.38;;;23.38;48.36
71194;BME280;58903;47.210;8.618;2024-03-22T08:21:05;94648.88;;;23.36;47.55
71194;BME280;58903;47.210;8.618;2024-03-22T08:23:34;94651.53;;;23.30;46.92
71194;BME280;58903;47.210;8.618;2024-03-22T08:26:00;94642.53;;;23.24;48.01
71194;BME280;58903;47.210;8.618;2024-03-22T08:28:27;94642.78;;;23.26;47.84
71194;BME280;58903;47.210;8.618;2024-03-22T08:30:53;94647.88;;;23.33;47.46
71194;BME280;58903;47.210;8.618;2024-03-22T08:33:19;94648.63;;;23.34;47.50
71194;BME280;58903;47.210;8.618;2024-03-22T08:35:45;94644.63;;;23.35;47.69
71194;BME280;58903;47.210;8.618;2024-03-22T08:38:13;94642.63;;;23.35;47.64
71194;BME280;58903;47.210;8.618;2024-03-22T08:40:41;94638.16;;;23.38;47.86
71194;BME280;58903;47.210;8.618;2024-03-22T08:43:07;94635.63;;;23.34;48.29
71194;BME280;58903;47.210;8.618;2024-03-22T08:45:35;94633.69;;;23.40;48.05
71194;BME280;58903;47.210;8.618;2024-03-22T08:48:01;94639.19;;;23.40;48.02
71194;BME280;58903;47.210;8.618;2024-03-22T08:50:28;94633.91;;;23.37;48.11
71194;BME280;58903;47.210;8.618;2024-03-22T08:52:56;94630.44;;;23.42;48.26
71194;BME280;58903;47.210;8.618;2024-03-22T08:55:22;94635.22;;;23.47;48.12
71194;BME280;58903;47.210;8.618;2024-03-22T08:57:53;94638.50;;;23.51;47.62
71194;BME280;58903;47.210;8.618;2024-03-22T09:00:19;94638.50;;;23.56;47.89
71194;BME280;58903;47.210;8.618;2024-03-22T09:02:47;94634.28;;;23.61;48.36
71194;BME280;58903;47.210;8.618;2024-03-22T09:05:14;94636.06;;;23.64;47.63
71194;BME280;58903;47.210;8.618;2024-03-22T09:07:40;94635.56;;;23.65;47.95
71194;BME280;58903;47.210;8.618;2024-03-22T09:10:07;94632.31;;;23.67;48.14
71194;BME280;58903;47.210;8.618;2024-03-22T09:12:33;94633.56;;;23.66;48.24
71194;BME280;58903;47.210;8.618;2024-03-22T09:15:03;94639.59;;;23.70;48.10
71194;BME280;58903;47.210;8.618;2024-03-22T09:17:30;94635.09;;;23.72;47.84
71194;BME280;58903;47.210;8.618;2024-03-22T09:20:06;94637.84;;;23.72;47.94
71194;BME280;58903;47.210;8.618;2024-03-22T09:22:46;94636.84;;;23.75;47.41
71194;BME280;58903;47.210;8.618;2024-03-22T09:25:14;94627.06;;;23.69;47.82
71194;BME280;58903;47.210;8.618;2024-03-22T09:27:51;94630.13;;;23.76;47.63
71194;BME280;58903;47.210;8.618;2024-03-22T09:30:26;94624.13;;;23.78;47.70
71194;BME280;58903;47.210;8.618;2024-03-22T09:33:25;94623.88;;;23.76;47.42
71194;BME280;58903;47.210;8.618;2024-03-22T09:36:04;94615.63;;;23.76;47.48
71194;BME280;58903;47.210;8.618;2024-03-22T09:38:31;94619.13;;;23.76;47.78
71194;BME280;58903;47.210;8.618;2024-03-22T09:40:59;94618.38;;;23.76;47.63
71194;BME280;58903;47.210;8.618;2024-03-22T09:43:59;94616.13;;;23.74;47.45
71194;BME280;58903;47.210;8.618;2024-03-22T09:46:27;94617.38;;;23.73;47.98
71194;BME280;58903;47.210;8.618;2024-03-22T09:48:54;94609.38;;;23.70;47.65
71194;BME280;58903;47.210;8.618;2024-03-22T09:51:36;94609.63;;;23.72;47.81
71194;BME280;58903;47.210;8.618;2024-03-22T09:54:09;94612.88;;;23.70;48.21
71194;BME280;58903;47.210;8.618;2024-03-22T09:56:38;94610.59;;;23.69;47.70
71194;BME280;58903;47.210;8.618;2024-03-22T09:59:11;94610.59;;;23.69;47.93
71194;BME280;58903;47.210;8.618;2024-03-22T10:01:58;94611.88;;;23.68;47.45
71194;BME280;58903;47.210;8.618;2024-03-22T10:04:36;94600.38;;;23.69;47.84
71194;BME280;58903;47.210;8.618;2024-03-22T10:07:05;94586.88;;;23.66;47.44
71194;BME280;58903;47.210;8.618;2024-03-22T10:09:32;94587.66;;;23.72;47.51
71194;BME280;58903;47.210;8.618;2024-03-22T10:11:58;94584.66;;;23.70;47.75
71194;BME280;58903;47.210;8.618;2024-03-22T10:14:25;94586.41;;;23.73;47.08
71194;BME280;58903;47.210;8.618;2024-03-22T10:17:04;94586.41;;;23.73;47.60
71194;BME280;58903;47.210;8.618;2024-03-22T10:19:41;94581.19;;;23.75;47.08
71194;BME280;58903;47.210;8.618;2024-03-22T10:22:07;94577.69;;;23.74;47.34
71194;BME280;58903;47.210;8.618;2024-03-22T10:24:40;94572.94;;;23.75;47.70
71194;BME280;58903;47.210;8.618;2024-03-22T10:27:05;94566.91;;;23.71;47.56
71194;BME280;58903;47.210;8.618;2024-03-22T10:29:36;94568.94;;;23.76;48.14
71194;BME280;58903;47.210;8.618;2024-03-22T10:32:03;94562.72;;;23.81;49.16
71194;BME280;58903;47.210;8.618;2024-03-22T10:34:37;94556.47;;;23.86;49.13
71194;BME280;58903;47.210;8.618;2024-03-22T10:37:17;94558.00;;;23.87;49.39
71194;BME280;58903;47.210;8.618;2024-03-22T10:40:02;94560.75;;;23.87;49.23
71194;BME280;58903;47.210;8.618;2024-03-22T10:42:44;94552.75;;;23.83;50.88
71194;BME280;58903;47.210;8.618;2024-03-22T10:45:12;94553.22;;;23.82;50.87
71194;BME280;58903;47.210;8.618;2024-03-22T10:47:41;94538.22;;;23.72;49.48
71194;BME280;58903;47.210;8.618;2024-03-22T10:50:22;94541.69;;;23.67;48.37
71194;BME280;58903;47.210;8.618;2024-03-22T10:55:57;94537.91;;;23.53;47.63
71194;BME280;58903;47.210;8.618;2024-03-22T10:58:29;94547.91;;;23.56;47.76
71194;BME280;58903;47.210;8.618;2024-03-22T11:04:30;94531.44;;;23.56;47.47
71194;BME280;58903;47.210;8.618;2024-03-22T11:06:58;94532.19;;;23.57;47.24
71194;BME280;58903;47.210;8.618;2024-03-22T11:09:27;94533.91;;;23.54;47.93
71194;BME280;58903;47.210;8.618;2024-03-22T11:11:55;94530.41;;;23.54;47.33
71194;BME280;58903;47.210;8.618;2024-03-22T11:14:25;94529.19;;;23.55;47.78
71194;BME280;58903;47.210;8.618;2024-03-22T11:17:04;94531.44;;;23.56;47.69
71194;BME280;58903;47.210;8.618;2024-03-22T11:19:33;94529.94;;;23.55;47.45
71194;BME280;58903;47.210;8.618;2024-03-22T11:22:01;94524.47;;;23.55;47.21
71194;BME280;58903;47.210;8.618;2024-03-22T11:25:00;94522.44;;;23.56;47.15
71194;BME280;58903;47.210;8.618;2024-03-22T11:27:35;94518.22;;;23.60;46.82
71194;BME280;58903;47.210;8.618;2024-03-22T11:30:35;94520.47;;;23.62;47.14
71194;BME280;58903;47.210;8.618;2024-03-22T11:33:04;94516.47;;;23.63;46.45
71194;BME280;58903;47.210;8.618;2024-03-22T11:35:39;94505.00;;;23.64;46.62
71194;BME280;58903;47.210;8.618;2024-03-22T11:38:17;94504.78;;;23.68;47.03
71194;BME280;58903;47.210;8.618;2024-03-22T11:40:58;94488.25;;;23.62;46.70
71194;BME280;58903;47.210;8.618;2024-03-22T11:43:28;94491.28;;;23.70;46.41
71194;BME280;58903;47.210;8.618;2024-03-22T11:45:58;94485.28;;;23.66;46.05
71194;BME280;58903;47.210;8.618;2024-03-22T11:48:45;94489.56;;;23.72;46.83
71194;BME280;58903;47.210;8.618;2024-03-22T11:51:13;94484.28;;;23.69;46.31
71194;BME280;58903;47.210;8.618;2024-03-22T11:54:06;94479.81;;;23.66;45.98
71194;BME280;58903;47.210;8.618;2024-03-22T11:56:35;94479.81;;;23.66;45.28
71194;BME280;58903;47.210;8.618;2024-03-22T11:59:19;94479.56;;;23.69;44.25
71194;BME280;58903;47.210;8.618;2024-03-22T12:01:54;94464.59;;;23.70;44.77
71194;BME280;58903;47.210;8.618;2024-03-22T12:04:47;94462.81;;;23.73;45.78
71194;BME280;58903;47.210;8.618;2024-03-22T12:07:23;94453.34;;;23.74;45.38
71194;BME280;58903;47.210;8.618;2024-03-22T12:09:49;94449.38;;;23.75;45.98
71194;BME280;58903;47.210;8.618;2024-03-22T12:12:15;94443.59;;;23.73;45.49
71194;BME280;58903;47.210;8.618;2024-03-22T12:14:43;94440.59;;;23.71;45.27
71194;BME280;58903;47.210;8.618;2024-03-22T12:20:39;94438.38;;;23.75;45.89
71194;BME280;58903;47.210;8.618;2024-03-22T12:23:05;94435.63;;;23.75;45.73
71194;BME280;58903;47.210;8.618;2024-03-22T12:25:49;94432.63;;;23.78;45.84
71194;BME280;58903;47.210;8.618;2024-03-22T12:28:25;94426.63;;;23.80;45.63
71194;BME280;58903;47.210;8.618;2024-03-22T12:31:12;94416.91;;;23.79;45.04
71194;BME280;58903;47.210;8.618;2024-03-22T12:33:55;94414.66;;;23.77;45.17
71194;BME280;58903;47.210;8.618;2024-03-22T12:36:22;94398.19;;;23.72;45.21
71194;BME280;58903;47.210;8.618;2024-03-22T12:39:04;94395.16;;;23.75;45.08
71194;BME280;58903;47.210;8.618;2024-03-22T12:41:31;94394.94;;;23.68;45.01
71194;BME280;58903;47.210;8.618;2024-03-22T12:44:17;94386.69;;;23.57;43.70
71194;BME280;58903;47.210;8.618;2024-03-22T12:46:45;94375.94;;;23.48;43.26
71194;BME280;58903;47.210;8.618;2024-03-22T12:49:13;94366.63;;;23.29;41.73
71194;BME280;58903;47.210;8.618;2024-03-22T12:51:49;94366.88;;;23.19;41.63
71194;BME280;58903;47.210;8.618;2024-03-22T12:54:17;94365.84;;;23.11;40.82
71194;BME280;58903;47.210;8.618;2024-03-22T12:57:04;94358.84;;;23.10;40.02
71194;BME280;58903;47.210;8.618;2024-03-22T12:59:32;94353.88;;;23.14;40.14
71194;BME280;58903;47.210;8.618;2024-03-22T13:02:00;94356.13;;;23.21;40.09
71194;BME280;58903;47.210;8.618;2024-03-22T13:04:59;94347.19;;;23.32;39.65
71194;BME280;58903;47.210;8.618;2024-03-22T13:07:47;94348.97;;;23.41;39.23
71194;BME280;58903;47.210;8.618;2024-03-22T13:10:13;94345.22;;;23.49;39.42
71194;BME280;58903;47.210;8.618;2024-03-22T13:12:39;94348.00;;;23.66;39.82
71194;BME280;58903;47.210;8.618;2024-03-22T13:15:05;94335.50;;;23.87;40.12
71194;BME280;58903;47.210;8.618;2024-03-22T13:18:02;94326.53;;;24.09;39.91
71194;BME280;58903;47.210;8.618;2024-03-22T13:20:28;94338.00;;;24.29;39.25
71194;BME280;58903;47.210;8.618;2024-03-22T13:22:55;94330.44;;;24.46;39.46
71194;BME280;58903;47.210;8.618;2024-03-22T13:25:21;94323.63;;;24.64;39.72
71194;BME280;58903;47.210;8.618;2024-03-22T13:27:47;94311.88;;;24.75;38.71
71194;BME280;58903;47.210;8.618;2024-03-22T13:30:13;94310.59;;;24.81;37.63
71194;BME280;58903;47.210;8.618;2024-03-22T13:32:42;94308.78;;;24.89;37.55
71194;BME280;58903;47.210;8.618;2024-03-22T13:35:10;94301.25;;;24.95;36.96
71194;BME280;58903;47.210;8.618;2024-03-22T13:37:36;94295.50;;;24.99;37.44
71194;BME280;58903;47.210;8.618;2024-03-22T13:40:07;94283.69;;;25.04;37.65
71194;BME280;58903;47.210;8.618;2024-03-22T13:42:34;94281.63;;;25.15;37.95
71194;BME280;58903;47.210;8.618;2024-03-22T13:45:16;94284.31;;;25.21;37.82
71194;BME280;58903;47.210;8.618;2024-03-22T13:47:44;94280.31;;;25.22;38.56
71194;BME280;58903;47.210;8.618;2024-03-22T13:50:26;94270.00;;;25.28;39.15
71194;BME280;58903;47.210;8.618;2024-03-22T13:53:01;94266.25;;;25.31;38.92
71194;BME280;58903;47.210;8.618;2024-03-22T13:55:58;94264.72;;;25.35;39.81